CheckWX is a tool to help pilots better visualize weather data.  It is not intended as a substitute for an official pre-flight weather briefing.

16:14:26 UTC

KMWC METAR
Lawrence J Timmerman Airport
Milwaukee, Wisconsin, USA
Current

29 mins ago

KMWC 291545Z 22013G22KT 10SM OVC013 05/02 A2942
Observed
Mar-29 @ 15:45 UTC
Wind
  • 220° at 13 KTS
  • Gusting to 22 KTS
Visibility
10 SM
Flight Rules
MVFR
Cloud Levels
  • Overcast at 1,300' AGL
Temperature
C / 41°F
Dewpoint
C / 36°F
Humidity
81%
Altimeter
29.42" Hg
Pressure
996.32 hPa
Previous

1 hour ago

KMWC 291445Z 22018KT 10SM OVC015 05/02 A2940
Observed
Mar-29 @ 14:45 UTC
Wind
  • 220° at 18 KTS
Visibility
10 SM
Flight Rules
MVFR
Cloud Levels
  • Overcast at 1,500' AGL
Temperature
C / 41°F
Dewpoint
C / 36°F
Humidity
81%
Altimeter
29.4" Hg
Pressure
995.62 hPa
Previous

2 hours ago

KMWC 291345Z 23013G22KT 10SM SCT011 BKN018 OVC028 06/03 A2939
Observed
Mar-29 @ 13:45 UTC
Wind
  • 230° at 13 KTS
  • Gusting to 22 KTS
Visibility
10 SM
Flight Rules
MVFR
Cloud Levels
  • Scattered at 1,100' AGL
  • Broken at 1,800' AGL
  • Overcast at 2,800' AGL
Temperature
C / 43°F
Dewpoint
C / 37°F
Humidity
81%
Altimeter
29.39" Hg
Pressure
995.22 hPa